createdAt,value
2023-07-19T00:00:17.572Z,76.2
2023-07-19T00:01:20.524Z,76.4
2023-07-19T00:02:21.850Z,76.4
2023-07-19T00:03:23.624Z,76.2
2023-07-19T00:04:25.912Z,76.2
2023-07-19T00:05:27.906Z,76
2023-07-19T00:06:29.566Z,75.9
2023-07-19T00:07:31.730Z,76.2
2023-07-19T00:08:33.609Z,76.6
2023-07-19T00:09:35.609Z,76.8
2023-07-19T00:10:37.873Z,76.8
2023-07-19T00:11:39.623Z,76.5
2023-07-19T00:12:56.822Z,76.5
2023-07-19T00:13:57.839Z,76.7
2023-07-19T00:15:00.237Z,76.6
2023-07-19T00:16:02.358Z,76.7
2023-07-19T00:17:04.047Z,76.7
2023-07-19T00:18:06.136Z,76.7
2023-07-19T00:19:21.391Z,76.1
2023-07-19T00:20:22.121Z,75.9
2023-07-19T00:21:24.223Z,76
2023-07-19T00:22:26.150Z,76
2023-07-19T00:23:28.336Z,76.1
2023-07-19T00:24:30.133Z,76.4
2023-07-19T00:25:32.104Z,76.5
2023-07-19T00:26:34.113Z,76.3
2023-07-19T00:27:36.151Z,76.4
2023-07-19T00:28:38.113Z,76.4
2023-07-19T00:29:40.112Z,76.7
2023-07-19T00:30:42.110Z,77.1
2023-07-19T00:31:44.136Z,77.2
2023-07-19T00:32:46.574Z,77.3
2023-07-19T00:33:48.314Z,77.4
2023-07-19T00:34:50.321Z,77.7
2023-07-19T00:35:52.681Z,77.9
2023-07-19T00:36:54.136Z,77.9
2023-07-19T00:37:56.096Z,78
2023-07-19T00:38:58.093Z,77.9
2023-07-19T00:40:00.128Z,78.2
2023-07-19T00:41:02.342Z,78.3
2023-07-19T00:42:04.126Z,78.3
2023-07-19T00:43:06.101Z,78
2023-07-19T00:44:08.115Z,77.9
2023-07-19T00:45:10.099Z,77.6
2023-07-19T00:46:12.327Z,77.5
2023-07-19T00:47:14.105Z,77.3
2023-07-19T00:48:16.085Z,77.3
2023-07-19T00:49:18.191Z,77.2
2023-07-19T00:50:20.121Z,77.1
2023-07-19T00:51:22.691Z,77
2023-07-19T00:52:24.077Z,77.1
2023-07-19T00:53:26.111Z,77.2
2023-07-19T00:54:28.079Z,77.3
2023-07-19T00:55:30.117Z,77.2
2023-07-19T00:56:32.080Z,77.2
2023-07-19T00:57:34.072Z,77.3
2023-07-19T00:58:36.081Z,77.4
2023-07-19T00:59:38.101Z,77.6
2023-07-19T01:00:40.118Z,77.7
2023-07-19T01:01:42.087Z,78
2023-07-19T01:02:44.296Z,78.2
2023-07-19T01:03:46.066Z,78.7
2023-07-19T01:04:48.461Z,78.8
2023-07-19T01:05:50.073Z,79
2023-07-19T01:06:52.074Z,79
2023-07-19T01:07:54.069Z,79
2023-07-19T01:08:56.112Z,78.9
2023-07-19T01:09:58.094Z,78.5
2023-07-19T01:11:00.055Z,78.2
2023-07-19T01:12:02.059Z,78.1
2023-07-19T01:13:04.065Z,78.2
2023-07-19T01:14:06.092Z,78.2
2023-07-19T01:15:08.062Z,78.1
2023-07-19T01:16:10.378Z,77.9
2023-07-19T01:17:12.058Z,77.6
2023-07-19T01:18:14.077Z,77.5
2023-07-19T01:19:16.084Z,77.4
2023-07-19T01:20:18.097Z,77.9
2023-07-19T01:21:25.711Z,78
2023-07-19T01:22:28.001Z,78.1
2023-07-19T01:23:29.585Z,78.2
2023-07-19T01:24:31.552Z,78.3
2023-07-19T01:25:33.573Z,78.4
2023-07-19T01:26:35.596Z,78.2
2023-07-19T01:27:37.604Z,78.3
2023-07-19T01:28:39.586Z,78.5
2023-07-19T01:29:41.560Z,78.6
2023-07-19T01:30:43.540Z,78.7
2023-07-19T01:31:45.827Z,78.7
2023-07-19T01:32:47.905Z,79
2023-07-19T01:33:49.556Z,79
2023-07-19T01:34:51.561Z,78.7
2023-07-19T01:35:53.726Z,78.7
2023-07-19T01:36:55.577Z,78.7
2023-07-19T01:37:57.577Z,78.6
2023-07-19T01:38:59.532Z,78.5
2023-07-19T01:40:01.547Z,78.2
2023-07-19T01:41:03.554Z,78.3
2023-07-19T01:42:05.561Z,78.1
2023-07-19T01:43:07.527Z,77.9
2023-07-19T01:44:09.524Z,78
2023-07-19T01:45:11.534Z,78.3
2023-07-19T01:46:13.666Z,78.4
2023-07-19T01:47:15.554Z,78.6
2023-07-19T01:48:17.526Z,78.7
2023-07-19T01:49:19.529Z,78.3
2023-07-19T01:50:21.541Z,78.3
2023-07-19T01:51:24.672Z,78.3
2023-07-19T01:52:25.964Z,78.4
2023-07-19T01:53:27.530Z,78.4
2023-07-19T01:54:29.519Z,78.4
2023-07-19T01:55:31.556Z,78.1
2023-07-19T01:56:33.569Z,77.7
2023-07-19T01:57:35.534Z,77.9
2023-07-19T01:58:37.678Z,78.1
2023-07-19T01:59:39.501Z,78
2023-07-19T02:00:41.538Z,77.5
2023-07-19T02:01:43.915Z,77.6
2023-07-19T02:02:46.026Z,77.8
2023-07-19T02:03:47.644Z,77.7
2023-07-19T02:04:50.020Z,77.2
2023-07-19T02:05:51.549Z,77.2
2023-07-19T02:06:53.552Z,77.3
2023-07-19T02:07:55.494Z,77.5
2023-07-19T02:08:57.494Z,77.6
2023-07-19T02:09:59.527Z,78.1
2023-07-19T02:11:01.500Z,78.5
2023-07-19T02:12:03.495Z,78.7
2023-07-19T02:13:05.492Z,79
2023-07-19T02:14:07.524Z,79.3
2023-07-19T02:15:09.524Z,79.2
2023-07-19T02:16:11.710Z,78.7
2023-07-19T02:17:13.480Z,78.6
2023-07-19T02:18:15.803Z,78.7
2023-07-19T02:19:17.515Z,79.2
2023-07-19T02:20:19.483Z,79.3
2023-07-19T02:21:22.431Z,79.5
2023-07-19T02:22:23.527Z,79.5
2023-07-19T02:23:25.479Z,79
2023-07-19T02:24:27.510Z,79
2023-07-19T02:25:29.494Z,79
2023-07-19T02:26:31.475Z,79.1
2023-07-19T02:27:33.473Z,79.1
2023-07-19T02:28:35.516Z,78.4
2023-07-19T02:29:37.491Z,78.3
2023-07-19T02:30:39.471Z,78.6
2023-07-19T02:31:41.629Z,78.6
2023-07-19T02:32:43.667Z,78.7
2023-07-19T02:33:45.514Z,78.7
2023-07-19T02:34:47.469Z,78.6
2023-07-19T02:35:49.459Z,78.7
2023-07-19T02:36:51.467Z,79
2023-07-19T02:37:53.675Z,79
2023-07-19T02:38:55.498Z,79.3
2023-07-19T02:39:57.453Z,79.5
2023-07-19T02:40:59.453Z,79.7
2023-07-19T02:42:01.457Z,79.7
2023-07-19T02:43:03.490Z,80
2023-07-19T02:44:05.465Z,80
2023-07-19T02:45:07.444Z,80
2023-07-19T02:46:09.765Z,80
2023-07-19T02:47:11.447Z,80.1
2023-07-19T02:48:13.870Z,80.2
2023-07-19T02:49:15.449Z,80.3
2023-07-19T02:50:17.450Z,80.5
2023-07-19T02:51:20.314Z,80.6
2023-07-19T02:52:21.466Z,80.7
2023-07-19T02:53:23.534Z,80.8
2023-07-19T02:54:25.432Z,80.7
2023-07-19T02:55:27.457Z,80.7
2023-07-19T02:56:29.437Z,80.4
2023-07-19T02:57:31.462Z,80.2
2023-07-19T02:58:33.427Z,80.4
2023-07-19T02:59:35.430Z,80.4
2023-07-19T03:00:37.601Z,80.4
2023-07-19T03:01:39.480Z,80.1
2023-07-19T03:02:41.734Z,80
2023-07-19T03:03:44.114Z,79.8
2023-07-19T03:04:45.417Z,80
2023-07-19T03:05:47.414Z,80.1
2023-07-19T03:06:49.450Z,80.1
2023-07-19T03:07:51.426Z,80
2023-07-19T03:08:53.497Z,80
2023-07-19T03:09:55.415Z,80.1
2023-07-19T03:10:57.478Z,80.1
2023-07-19T03:11:59.419Z,80.1
2023-07-19T03:13:01.419Z,80.1
2023-07-19T03:14:03.418Z,80
2023-07-19T03:15:05.739Z,79.4
2023-07-19T03:16:07.819Z,78.9
2023-07-19T03:17:09.439Z,79.1
2023-07-19T03:18:11.409Z,79.4
2023-07-19T03:19:14.567Z,79.7
2023-07-19T03:20:15.459Z,79.9
2023-07-19T03:21:17.935Z,80
2023-07-19T03:22:19.409Z,80
2023-07-19T03:23:21.405Z,80
2023-07-19T03:24:23.448Z,79.7
2023-07-19T03:25:25.433Z,79.1
2023-07-19T03:26:27.391Z,78.8
2023-07-19T03:27:29.401Z,79.1
2023-07-19T03:28:31.552Z,79.2
2023-07-19T03:29:33.439Z,79.5
2023-07-19T03:30:35.435Z,79.6
2023-07-19T03:31:37.407Z,79.6
2023-07-19T03:32:39.757Z,79.9
2023-07-19T03:33:41.412Z,80
2023-07-19T03:34:43.432Z,80.4
2023-07-19T03:35:45.403Z,80.6
2023-07-19T03:36:47.407Z,80.7
2023-07-19T03:37:49.395Z,80.9
2023-07-19T03:38:51.409Z,80.9
2023-07-19T03:39:53.466Z,80.9
2023-07-19T03:40:55.378Z,81
2023-07-19T03:41:57.375Z,80.9
2023-07-19T03:42:59.386Z,80.5
2023-07-19T03:44:01.416Z,80.4
2023-07-19T03:45:03.372Z,80.6
2023-07-19T03:46:05.553Z,80.6
2023-07-19T03:47:07.364Z,80.6
2023-07-19T03:48:09.420Z,80.5
2023-07-19T03:49:11.483Z,80.6
2023-07-19T03:50:13.375Z,80.5
2023-07-19T03:51:15.371Z,80.6
2023-07-19T03:52:17.387Z,80.5
2023-07-19T03:53:19.399Z,80.5
2023-07-19T03:54:21.375Z,80.7
2023-07-19T03:55:23.755Z,81
2023-07-19T03:56:25.387Z,80.9
2023-07-19T03:57:27.439Z,80.7
2023-07-19T03:58:29.399Z,81
2023-07-19T03:59:31.385Z,81.4
2023-07-19T04:00:33.371Z,81.3
2023-07-19T04:01:35.772Z,81.4
2023-07-19T04:02:37.517Z,81.5
2023-07-19T04:03:39.591Z,81.4
2023-07-19T04:04:41.350Z,81.2
2023-07-19T04:05:43.658Z,81.3
2023-07-19T04:06:45.355Z,81.2
2023-07-19T04:07:47.390Z,81.2
2023-07-19T04:08:49.364Z,81
2023-07-19T04:09:51.357Z,80.9
2023-07-19T04:10:53.404Z,80.9
2023-07-19T04:11:55.695Z,80.7
2023-07-19T04:12:57.384Z,80.8
2023-07-19T04:13:59.340Z,80.9
2023-07-19T04:15:01.374Z,80.9
2023-07-19T04:16:03.607Z,80.8
2023-07-19T04:17:05.383Z,80.8
2023-07-19T04:18:07.742Z,80.7
2023-07-19T04:19:09.873Z,80.5
2023-07-19T04:20:11.335Z,80.5
2023-07-19T04:21:13.370Z,80.6
2023-07-19T04:22:15.369Z,80.5
2023-07-19T04:23:17.339Z,80.4
2023-07-19T04:24:19.331Z,80.4
2023-07-19T04:25:21.336Z,80.2
2023-07-19T04:26:23.565Z,79.8
2023-07-19T04:27:25.323Z,79.8
2023-07-19T04:28:27.351Z,80
2023-07-19T04:29:29.332Z,79.8
2023-07-19T04:30:31.375Z,79.9
2023-07-19T04:31:33.556Z,80
2023-07-19T04:32:35.618Z,80.1
2023-07-19T04:33:37.660Z,80.5
2023-07-19T04:34:39.320Z,80.5
2023-07-19T04:35:41.348Z,80.7
2023-07-19T04:36:43.321Z,80.9
2023-07-19T04:37:45.316Z,80.7
2023-07-19T04:38:47.311Z,80.7
2023-07-19T04:39:49.341Z,80.7
2023-07-19T04:40:51.342Z,80.9
2023-07-19T04:41:53.563Z,81
2023-07-19T04:42:55.324Z,81.1
2023-07-19T04:43:57.525Z,81.4
2023-07-19T04:44:59.332Z,81.6
2023-07-19T04:46:01.653Z,81.8
2023-07-19T04:47:03.383Z,81.8
2023-07-19T04:48:05.778Z,81.5
2023-07-19T04:49:07.344Z,81.1
2023-07-19T04:50:09.328Z,81.3
2023-07-19T04:51:11.295Z,81.4
2023-07-19T04:52:13.292Z,81.5
2023-07-19T04:53:15.301Z,81.5
2023-07-19T04:54:17.317Z,81.4
2023-07-19T04:55:19.322Z,81.4
2023-07-19T04:56:21.289Z,82.1
2023-07-19T04:57:23.653Z,82.1
2023-07-19T04:58:25.330Z,82.1
2023-07-19T04:59:27.322Z,82.3
2023-07-19T05:00:29.305Z,82
2023-07-19T05:01:31.588Z,81.9
2023-07-19T05:02:33.602Z,82
2023-07-19T05:03:35.306Z,82.1
2023-07-19T05:04:37.702Z,82.4
2023-07-19T05:05:39.492Z,82.6
2023-07-19T05:06:41.288Z,82.7
2023-07-19T05:07:43.312Z,83.1
2023-07-19T05:08:45.315Z,82.9
2023-07-19T05:09:47.279Z,82.9
2023-07-19T05:10:49.277Z,83.3
2023-07-19T05:11:51.279Z,83.1
2023-07-19T05:12:53.545Z,83.3
2023-07-19T05:13:55.295Z,83.5
2023-07-19T05:14:57.276Z,83.9
2023-07-19T05:15:59.295Z,84.2
2023-07-19T05:17:01.828Z,84.3
2023-07-19T05:18:03.531Z,84.4
2023-07-19T05:19:05.546Z,84.4
2023-07-19T05:20:07.281Z,84.4
2023-07-19T05:21:09.352Z,84.1
2023-07-19T05:22:11.304Z,83.9
2023-07-19T05:23:13.782Z,84
2023-07-19T05:24:15.253Z,84.5
2023-07-19T05:25:17.263Z,84.7
2023-07-19T05:26:19.303Z,84.8
2023-07-19T05:27:21.268Z,84.5
2023-07-19T05:28:23.450Z,84.7
2023-07-19T05:29:25.245Z,84.8
2023-07-19T05:30:27.250Z,84.8
2023-07-19T05:31:29.293Z,84.7
2023-07-19T05:32:31.343Z,84.6
2023-07-19T05:33:33.244Z,84.3
2023-07-19T05:34:35.444Z,84.4
2023-07-19T05:35:37.318Z,84.2
2023-07-19T05:36:39.558Z,84.1
2023-07-19T05:37:41.609Z,85.2
2023-07-19T05:38:43.354Z,84.8
2023-07-19T05:39:45.633Z,84.5
2023-07-19T05:40:47.265Z,84.4
2023-07-19T05:41:51.980Z,85.1
2023-07-19T05:42:52.292Z,85.5
2023-07-19T05:44:12.120Z,85.5
2023-07-19T05:45:13.192Z,85
2023-07-19T05:46:15.277Z,85
2023-07-19T05:47:17.142Z,84.6
2023-07-19T05:48:19.438Z,84.2
2023-07-19T05:49:21.181Z,83.6
2023-07-19T05:50:23.474Z,83.8
2023-07-19T05:51:25.137Z,83.8
2023-07-19T05:52:27.128Z,83.8
2023-07-19T05:53:29.156Z,83.8
2023-07-19T05:54:31.168Z,83.7
2023-07-19T05:55:33.137Z,83.7
2023-07-19T05:56:35.156Z,83.6
2023-07-19T05:57:37.135Z,83.7
2023-07-19T05:58:39.155Z,84.1
2023-07-19T05:59:41.372Z,84
2023-07-19T06:00:43.410Z,83.8
2023-07-19T06:01:45.522Z,83.2
2023-07-19T06:02:55.799Z,82.6
2023-07-19T06:03:56.997Z,81.9
2023-07-19T06:04:58.702Z,81.2
2023-07-19T06:06:00.571Z,80.4
2023-07-19T06:07:02.581Z,79.6
2023-07-19T06:08:24.896Z,79
2023-07-19T06:09:25.630Z,77.5
2023-07-19T06:10:27.702Z,77.3
2023-07-19T06:11:29.619Z,77
2023-07-19T06:12:31.613Z,76.5
2023-07-19T06:13:33.681Z,76.1
2023-07-19T06:14:35.616Z,75.9
2023-07-19T06:15:38.012Z,75.4
2023-07-19T06:16:39.629Z,76.7
2023-07-19T06:17:41.847Z,78.4
2023-07-19T06:18:43.613Z,74.9
2023-07-19T06:19:45.611Z,77.2
2023-07-19T06:20:47.947Z,77.5
2023-07-19T06:21:49.601Z,74.8
2023-07-19T06:22:51.762Z,74.3
2023-07-19T06:23:53.840Z,74.4
2023-07-19T06:24:55.611Z,75.4
2023-07-19T06:25:57.627Z,76.3
2023-07-19T06:26:59.630Z,75.3
2023-07-19T06:28:01.620Z,75.1
2023-07-19T06:29:03.589Z,74.6
2023-07-19T06:30:05.580Z,71.8
2023-07-19T06:31:07.937Z,70.7
2023-07-19T06:32:09.638Z,73.1
2023-07-19T06:33:12.020Z,71.7
2023-07-19T06:34:14.040Z,69.5
2023-07-19T06:35:15.591Z,70.7
2023-07-19T06:36:17.615Z,71.2
2023-07-19T06:37:19.619Z,70.2
2023-07-19T06:38:21.596Z,70.6
2023-07-19T06:39:23.583Z,69.6
2023-07-19T06:40:25.586Z,69.6
2023-07-19T06:41:27.606Z,71
2023-07-19T06:42:29.574Z,71.8
2023-07-19T06:43:31.576Z,72.2
2023-07-19T06:44:33.975Z,71.7
2023-07-19T06:45:35.608Z,68.9
2023-07-19T06:46:37.834Z,69.7
2023-07-19T06:47:39.602Z,71.4
2023-07-19T06:48:41.583Z,71.2
2023-07-19T06:49:43.573Z,71.1
2023-07-19T06:50:45.588Z,70.8
2023-07-19T06:51:47.572Z,70.8
2023-07-19T06:52:49.565Z,69.3
2023-07-19T06:54:15.228Z,69.6
2023-07-19T06:55:16.302Z,70
2023-07-19T06:56:18.281Z,70.3
2023-07-19T06:57:20.283Z,70.1
2023-07-19T06:58:22.272Z,70.2
2023-07-19T06:59:24.270Z,70.7
2023-07-19T07:00:26.613Z,69.8
2023-07-19T07:01:28.686Z,69.3
2023-07-19T07:02:30.480Z,70.1
2023-07-19T07:03:32.567Z,69.3
2023-07-19T07:04:34.290Z,68.6
2023-07-19T07:05:36.311Z,68.9
2023-07-19T07:06:38.627Z,69.9
2023-07-19T07:07:40.254Z,69.9
2023-07-19T07:08:42.270Z,69.9
2023-07-19T07:09:44.297Z,69.5
2023-07-19T07:10:46.253Z,69.2
2023-07-19T07:11:48.284Z,69.1
2023-07-19T07:12:50.265Z,69.1
2023-07-19T07:13:52.283Z,69.4
2023-07-19T07:14:54.293Z,70
2023-07-19T07:15:56.270Z,70.3
2023-07-19T07:16:58.590Z,70.3
2023-07-19T07:18:00.690Z,70.4
2023-07-19T07:19:02.287Z,70.5
2023-07-19T07:20:04.242Z,70.4
2023-07-19T07:21:06.249Z,70.5
2023-07-19T07:22:08.441Z,69.8
2023-07-19T07:23:10.623Z,70.2
2023-07-19T07:24:12.274Z,71.4
2023-07-19T07:25:14.231Z,71.9
2023-07-19T07:26:16.255Z,71.8
2023-07-19T07:27:18.253Z,71
2023-07-19T07:28:20.271Z,71.8
2023-07-19T07:29:22.237Z,72
2023-07-19T07:30:24.353Z,72.3
2023-07-19T07:31:26.856Z,72.8
2023-07-19T07:32:28.403Z,72.5
2023-07-19T07:33:30.562Z,72.1
2023-07-19T07:34:32.232Z,72.1
2023-07-19T07:35:34.234Z,71.9
2023-07-19T07:36:36.224Z,71.4
2023-07-19T07:37:38.260Z,70.9
2023-07-19T07:38:40.223Z,71.5
2023-07-19T07:39:42.233Z,70.3
2023-07-19T07:40:44.256Z,70.2
2023-07-19T07:41:46.247Z,70.4
2023-07-19T07:42:48.245Z,70.3
2023-07-19T07:43:50.223Z,70.3
2023-07-19T07:44:52.221Z,70.3
2023-07-19T07:45:54.226Z,69.6
2023-07-19T07:46:56.318Z,69.2
2023-07-19T07:47:58.429Z,67.9
2023-07-19T07:49:00.471Z,67.5
2023-07-19T07:50:02.210Z,67.8
2023-07-19T07:51:04.551Z,68.1
2023-07-19T07:52:06.250Z,68.3
2023-07-19T07:53:13.550Z,68.3
2023-07-19T07:54:14.032Z,68.2
2023-07-19T07:55:16.033Z,68.9
2023-07-19T07:56:18.173Z,69.3
2023-07-19T07:57:20.228Z,68.8
2023-07-19T07:58:22.036Z,68.1
2023-07-19T07:59:24.010Z,68.7
2023-07-19T08:00:26.024Z,69.3
2023-07-19T08:01:28.200Z,70
2023-07-19T08:02:30.543Z,69.5
2023-07-19T08:03:32.279Z,67.4
2023-07-19T08:04:34.338Z,66.5
2023-07-19T08:05:36.025Z,67.3
2023-07-19T08:06:38.108Z,67.7
2023-07-19T08:07:39.999Z,68.4
2023-07-19T08:08:42.014Z,68.5
2023-07-19T08:09:44.028Z,68.5
2023-07-19T08:10:46.014Z,68.9
2023-07-19T08:11:47.992Z,69.2
2023-07-19T08:12:49.993Z,69.8
2023-07-19T08:13:51.995Z,70.7
2023-07-19T08:14:54.017Z,71.7
2023-07-19T08:15:55.989Z,72.1
2023-07-19T08:17:02.755Z,72.6
2023-07-19T08:18:03.586Z,73.3
2023-07-19T08:19:05.493Z,73.4
2023-07-19T08:20:07.612Z,74
2023-07-19T08:21:22.172Z,75
2023-07-19T08:22:26.079Z,73.6
2023-07-19T08:23:28.094Z,74.4
2023-07-19T08:24:30.105Z,74.2
2023-07-19T08:25:32.098Z,75.2
2023-07-19T08:26:34.072Z,74.5
2023-07-19T08:27:36.063Z,74.8
2023-07-19T08:28:38.129Z,74.5
2023-07-19T08:29:40.103Z,74.8
2023-07-19T08:30:42.277Z,74.6
2023-07-19T08:31:44.066Z,75
2023-07-19T08:32:46.388Z,75.2
2023-07-19T08:33:48.138Z,75
2023-07-19T08:34:50.067Z,75.1
2023-07-19T08:35:52.434Z,75.3
2023-07-19T08:36:54.074Z,75.2
2023-07-19T08:37:56.088Z,75.7
2023-07-19T08:38:58.062Z,76
2023-07-19T08:40:00.060Z,76.2
2023-07-19T08:41:02.192Z,76.8
2023-07-19T08:42:04.059Z,77.7
2023-07-19T08:43:07.546Z,78.1
2023-07-19T08:44:08.054Z,77.8
2023-07-19T08:45:10.071Z,77.5
2023-07-19T08:46:12.209Z,77
2023-07-19T08:47:14.090Z,76.9
2023-07-19T08:48:16.069Z,76.5
2023-07-19T08:49:18.039Z,76.6
2023-07-19T08:50:20.427Z,76.2
2023-07-19T08:51:23.029Z,75
2023-07-19T08:52:24.093Z,75
2023-07-19T08:53:26.050Z,76.3
2023-07-19T08:54:28.031Z,76.8
2023-07-19T08:55:30.041Z,77.2
2023-07-19T08:56:32.079Z,75.7
2023-07-19T08:57:34.026Z,76.8
2023-07-19T08:58:36.075Z,77
2023-07-19T08:59:38.033Z,77.7
2023-07-19T09:00:40.029Z,77.6
2023-07-19T09:01:42.427Z,77.5
2023-07-19T09:02:44.157Z,76.8
2023-07-19T09:03:46.075Z,76.5
2023-07-19T09:04:48.028Z,76.8
2023-07-19T09:05:50.059Z,77.3
2023-07-19T09:06:52.396Z,75.5
2023-07-19T09:07:54.023Z,75.5
2023-07-19T09:08:56.036Z,75
2023-07-19T09:09:58.294Z,75.8
2023-07-19T09:11:00.047Z,75.8
2023-07-19T09:12:02.024Z,76.3
2023-07-19T09:13:04.044Z,74.4
2023-07-19T09:14:06.016Z,74.3
2023-07-19T09:15:08.157Z,74.6
2023-07-19T09:16:10.041Z,75.2
2023-07-19T09:17:12.016Z,75.7
2023-07-19T09:18:14.402Z,76
2023-07-19T09:19:16.031Z,77.8
2023-07-19T09:20:18.032Z,76.9
2023-07-19T09:21:21.401Z,76.2
2023-07-19T09:22:22.288Z,76.6
2023-07-19T09:23:24.028Z,76.6
2023-07-19T09:24:26.031Z,76.4
2023-07-19T09:25:28.057Z,76.3
2023-07-19T09:26:30.017Z,76.5
2023-07-19T09:27:32.029Z,77
2023-07-19T09:28:34.002Z,77.4
2023-07-19T09:29:36.039Z,76.9
2023-07-19T09:30:38.020Z,77.7
2023-07-19T09:31:40.047Z,77.8
2023-07-19T09:32:42.211Z,78.1
2023-07-19T09:33:44.031Z,77.3
2023-07-19T09:34:46.022Z,77.1
2023-07-19T09:35:47.986Z,77.8
2023-07-19T09:36:49.998Z,77.9
2023-07-19T09:37:52.162Z,76.9
2023-07-19T09:38:54.303Z,76.5
2023-07-19T09:39:55.984Z,75.6
2023-07-19T09:40:57.982Z,75.5
2023-07-19T09:41:59.986Z,75.3
2023-07-19T09:43:02.013Z,75.2
2023-07-19T09:44:04.151Z,75.5
2023-07-19T09:45:05.994Z,74.9
2023-07-19T09:46:08.288Z,74.6
2023-07-19T09:47:29.384Z,76
2023-07-19T09:48:31.111Z,76
2023-07-19T09:49:32.752Z,75.9
2023-07-19T09:50:34.760Z,76
2023-07-19T09:51:36.750Z,77.3
2023-07-19T09:52:38.823Z,76.4
2023-07-19T09:53:41.145Z,75.7
2023-07-19T09:54:42.742Z,75.5
2023-07-19T09:55:44.752Z,75.4
2023-07-19T09:56:46.813Z,74.4
2023-07-19T09:57:48.799Z,74.4
2023-07-19T09:58:50.751Z,74.7
2023-07-19T09:59:53.096Z,75.6
2023-07-19T10:00:54.758Z,75.3
2023-07-19T10:01:56.923Z,74.4
2023-07-19T10:02:58.975Z,72.8
2023-07-19T10:04:01.008Z,72.6
2023-07-19T10:05:03.107Z,72.5
2023-07-19T10:06:04.762Z,73.3
2023-07-19T10:07:06.775Z,73.5
2023-07-19T10:08:08.731Z,73.4
2023-07-19T10:09:10.996Z,74.5
2023-07-19T10:10:12.721Z,75.3
2023-07-19T10:11:14.757Z,74.4
2023-07-19T10:12:16.731Z,74.8
2023-07-19T10:13:18.737Z,74.5
2023-07-19T10:14:34.903Z,74.2
2023-07-19T10:15:35.566Z,75
2023-07-19T10:16:37.599Z,73.1
2023-07-19T10:17:39.852Z,71.9
2023-07-19T10:18:41.537Z,72.5
2023-07-19T10:19:43.533Z,72.5
2023-07-19T10:20:45.601Z,71.6
2023-07-19T10:21:47.539Z,73.2
2023-07-19T10:22:50.052Z,72.6
2023-07-19T10:23:51.534Z,73.5
2023-07-19T10:24:53.608Z,71.2
2023-07-19T10:25:55.556Z,69.7
2023-07-19T10:26:57.526Z,70.2
2023-07-19T10:27:59.582Z,69.7
2023-07-19T10:29:01.538Z,69.1
2023-07-19T10:30:03.574Z,69.1
2023-07-19T10:31:29.133Z,69.5
2023-07-19T10:32:30.003Z,70
2023-07-19T10:33:32.056Z,69.7
2023-07-19T10:34:45.890Z,68.2
2023-07-19T10:35:46.545Z,68.1
2023-07-19T10:36:48.529Z,68.2
2023-07-19T10:37:52.790Z,68.9
2023-07-19T10:38:53.325Z,66.4
2023-07-19T10:39:55.360Z,67.1
2023-07-19T10:40:57.361Z,67.4
2023-07-19T10:41:59.303Z,69.1
2023-07-19T10:43:01.653Z,67.4
2023-07-19T10:44:07.085Z,66.2
2023-07-19T10:45:07.511Z,67.2
2023-07-19T10:46:09.785Z,67.1
2023-07-19T10:47:11.473Z,66.6
2023-07-19T10:48:13.473Z,65.5
2023-07-19T10:49:15.549Z,65.6
2023-07-19T10:50:17.494Z,67
2023-07-19T10:51:20.668Z,66.4
2023-07-19T10:52:21.465Z,66.2
2023-07-19T10:53:23.493Z,65.7
2023-07-19T10:54:25.505Z,65.5
2023-07-19T10:55:53.874Z,66
2023-07-19T10:56:55.327Z,66.7
2023-07-19T10:57:57.072Z,66.2
2023-07-19T10:58:59.433Z,66.5
2023-07-19T11:00:00.961Z,66.5
2023-07-19T11:01:03.273Z,66.3
2023-07-19T11:02:05.328Z,66
2023-07-19T11:03:07.456Z,67.6
2023-07-19T11:04:09.403Z,64.5
2023-07-19T11:05:10.947Z,65.2
2023-07-19T11:06:13.201Z,63
2023-07-19T11:07:15.261Z,64
2023-07-19T11:08:16.978Z,63.4
2023-07-19T11:09:18.946Z,63.8
2023-07-19T11:10:20.971Z,64.7
2023-07-19T11:11:23.659Z,62.7
2023-07-19T11:12:25.223Z,62.3
2023-07-19T11:13:26.967Z,63
2023-07-19T11:14:28.946Z,62.2
2023-07-19T11:15:31.081Z,63
2023-07-19T11:16:33.188Z,63.3
2023-07-19T11:17:35.220Z,62.7
2023-07-19T11:18:36.948Z,62.3
2023-07-19T11:19:38.939Z,61.2
2023-07-19T11:20:40.930Z,60.1
2023-07-19T11:21:42.971Z,61.1
2023-07-19T11:22:45.197Z,60.9
2023-07-19T11:23:46.921Z,61.2
2023-07-19T11:24:49.874Z,61.7
2023-07-19T11:25:50.958Z,62
2023-07-19T11:26:53.029Z,60.9
2023-07-19T11:27:55.736Z,61.4
2023-07-19T11:28:56.946Z,60.7
2023-07-19T11:29:58.938Z,60.5
2023-07-19T11:31:01.300Z,59.5
2023-07-19T11:32:02.918Z,59.5
2023-07-19T11:33:04.987Z,60.3
2023-07-19T11:34:06.914Z,60.2
2023-07-19T11:35:08.956Z,59.3
2023-07-19T11:36:10.948Z,60
2023-07-19T11:37:12.918Z,60.7
2023-07-19T11:38:14.926Z,61.1
2023-07-19T11:39:16.907Z,60.2
2023-07-19T11:40:18.952Z,61.7
2023-07-19T11:41:21.663Z,60.3
2023-07-19T11:42:22.943Z,59.9
2023-07-19T11:43:25.021Z,59.9
2023-07-19T11:44:26.947Z,59.8
2023-07-19T11:45:29.135Z,60.5
2023-07-19T11:46:31.245Z,59.4
2023-07-19T11:47:33.278Z,61
2023-07-19T11:48:34.911Z,59.2
2023-07-19T11:49:37.077Z,61.5
2023-07-19T11:50:38.908Z,57.7
2023-07-19T11:51:41.164Z,58.3
2023-07-19T11:52:42.897Z,57.2
2023-07-19T11:53:44.940Z,58.3
2023-07-19T11:54:46.923Z,56.4
2023-07-19T11:55:49.067Z,56.3
2023-07-19T11:56:50.890Z,55.8
2023-07-19T11:57:53.214Z,56.1
2023-07-19T11:58:55.230Z,56.6
2023-07-19T11:59:56.886Z,56.7
2023-07-19T12:00:59.037Z,56.8
2023-07-19T12:02:00.905Z,56.6
2023-07-19T12:03:03.409Z,55.7
2023-07-19T12:04:05.271Z,54.7
2023-07-19T12:05:06.888Z,54.8
2023-07-19T12:06:08.900Z,54.4
2023-07-19T12:07:10.885Z,54.2
2023-07-19T12:08:12.918Z,54.5
2023-07-19T12:09:14.877Z,53.6
2023-07-19T12:10:16.887Z,53.5
2023-07-19T12:11:18.869Z,53.7
2023-07-19T12:12:20.914Z,53.3
2023-07-19T12:13:22.941Z,53.1
2023-07-19T12:14:29.232Z,52.8
2023-07-19T12:15:30.255Z,53.3
2023-07-19T12:16:32.021Z,53.3
2023-07-19T12:17:34.085Z,53.9
2023-07-19T12:18:35.894Z,53.6
2023-07-19T12:19:37.887Z,53.8
2023-07-19T12:20:41.459Z,53.2
2023-07-19T12:21:42.255Z,53.4
2023-07-19T12:22:44.724Z,53.8
2023-07-19T12:23:59.131Z,53.9
2023-07-19T12:25:00.059Z,54.7
2023-07-19T12:26:02.060Z,54.8
2023-07-19T12:27:04.080Z,54.6
2023-07-19T12:28:06.074Z,55.9
2023-07-19T12:29:08.094Z,54.6
2023-07-19T12:30:10.083Z,54.1
2023-07-19T12:31:12.471Z,54.5
2023-07-19T12:32:14.071Z,53.8
2023-07-19T12:33:16.051Z,54.5
2023-07-19T12:34:18.065Z,53.2
2023-07-19T12:35:20.049Z,53.6
2023-07-19T12:36:23.041Z,54.7
2023-07-19T12:37:24.056Z,55.4
2023-07-19T12:38:26.071Z,56.2
2023-07-19T12:39:28.037Z,56.7
2023-07-19T12:40:30.066Z,56.5
2023-07-19T12:41:35.366Z,56.9
2023-07-19T12:42:36.854Z,55.3
2023-07-19T12:43:38.842Z,54.7
2023-07-19T12:44:40.862Z,54.5
2023-07-19T12:45:43.353Z,55.6
2023-07-19T12:46:45.170Z,56.1
2023-07-19T12:47:47.198Z,54.4
2023-07-19T12:48:48.823Z,54.2
2023-07-19T12:49:50.849Z,53.5
2023-07-19T12:50:52.816Z,53.8
2023-07-19T12:51:54.834Z,53.2
2023-07-19T12:52:56.817Z,52.1
2023-07-19T12:53:59.185Z,52.3
2023-07-19T12:55:00.844Z,51.8
2023-07-19T12:56:02.822Z,52.4
2023-07-19T12:57:04.815Z,52.5
2023-07-19T12:58:06.824Z,51.9
2023-07-19T12:59:10.996Z,52.4
2023-07-19T13:00:11.406Z,51.8
2023-07-19T13:01:13.654Z,51.8
2023-07-19T13:02:15.669Z,52.6
2023-07-19T13:03:17.778Z,52.2
2023-07-19T13:04:19.356Z,52.8
2023-07-19T13:05:21.315Z,53.3
2023-07-19T13:06:24.114Z,52.5
2023-07-19T13:07:25.320Z,53.2
2023-07-19T13:08:27.324Z,51.8
2023-07-19T13:09:29.700Z,50.5
2023-07-19T13:10:31.296Z,51.8
2023-07-19T13:11:33.296Z,51.5
2023-07-19T13:12:35.299Z,52
2023-07-19T13:13:37.611Z,52.3
2023-07-19T13:14:39.292Z,53
2023-07-19T13:15:41.337Z,53.3
2023-07-19T13:16:43.508Z,53.2
2023-07-19T13:17:45.597Z,52.9
2023-07-19T13:18:47.334Z,53.1
2023-07-19T13:19:49.295Z,54.2
2023-07-19T13:20:51.313Z,53.2
2023-07-19T13:21:53.292Z,54.1
2023-07-19T13:22:55.491Z,54
2023-07-19T13:23:57.293Z,54.2
2023-07-19T13:24:59.591Z,54.1
2023-07-19T13:26:01.655Z,53.4
2023-07-19T13:27:03.327Z,54.1
2023-07-19T13:28:05.298Z,54.9
2023-07-19T13:29:07.300Z,55.8
2023-07-19T13:30:09.872Z,54.5
2023-07-19T13:31:11.692Z,55.8
2023-07-19T13:32:15.083Z,56.8
2023-07-19T13:33:16.046Z,56.6
2023-07-19T13:34:17.683Z,56.4
2023-07-19T13:35:55.059Z,55.2
2023-07-19T13:37:01.709Z,54.2
2023-07-19T13:38:08.069Z,53.6
2023-07-19T13:39:08.658Z,54.1
2023-07-19T13:40:10.655Z,53
2023-07-19T13:41:12.688Z,52.7
2023-07-19T13:42:14.671Z,53.3
2023-07-19T13:43:16.685Z,54
2023-07-19T13:44:18.648Z,54.8
2023-07-19T13:45:20.664Z,53.6
2023-07-19T13:46:23.454Z,52.5
2023-07-19T13:47:25.692Z,52.4
2023-07-19T13:48:26.784Z,53
2023-07-19T13:49:28.938Z,53.1
2023-07-19T13:50:30.808Z,53.1
2023-07-19T13:51:32.811Z,53.6
2023-07-19T13:52:34.771Z,51.9
2023-07-19T13:53:36.790Z,53.5
2023-07-19T13:54:38.769Z,54.9
2023-07-19T13:55:40.824Z,55.1